sensor_id;sensor_type;location;lat;lon;timestamp;P1;durP1;ratioP1;P2;durP2;ratioP2
37431;SDS011;23292;51.300;6.252;2024-01-25T00:00:20;41.05;;;7.85;;
37431;SDS011;23292;51.300;6.252;2024-01-25T00:02:47;47.58;;;7.72;;
37431;SDS011;23292;51.300;6.252;2024-01-25T00:05:14;56.92;;;9.38;;
37431;SDS011;23292;51.300;6.252;2024-01-25T00:07:48;48.60;;;7.75;;
37431;SDS011;23292;51.300;6.252;2024-01-25T00:10:16;46.50;;;7.93;;
37431;SDS011;23292;51.300;6.252;2024-01-25T00:12:43;65.05;;;9.30;;
37431;SDS011;23292;51.300;6.252;2024-01-25T00:15:10;49.00;;;8.27;;
37431;SDS011;23292;51.300;6.252;2024-01-25T00:17:37;47.65;;;7.68;;
37431;SDS011;23292;51.300;6.252;2024-01-25T00:20:04;58.13;;;8.20;;
37431;SDS011;23292;51.300;6.252;2024-01-25T00:22:32;60.58;;;8.68;;
37431;SDS011;23292;51.300;6.252;2024-01-25T00:24:59;52.17;;;8.85;;
37431;SDS011;23292;51.300;6.252;2024-01-25T00:27:26;50.10;;;9.07;;
37431;SDS011;23292;51.300;6.252;2024-01-25T00:29:53;55.00;;;8.90;;
37431;SDS011;23292;51.300;6.252;2024-01-25T00:32:20;52.30;;;7.72;;
37431;SDS011;23292;51.300;6.252;2024-01-25T00:34:47;48.45;;;8.30;;
37431;SDS011;23292;51.300;6.252;2024-01-25T00:37:15;44.65;;;8.05;;
37431;SDS011;23292;51.300;6.252;2024-01-25T00:39:42;45.50;;;7.55;;
37431;SDS011;23292;51.300;6.252;2024-01-25T00:42:11;41.80;;;7.90;;
37431;SDS011;23292;51.300;6.252;2024-01-25T00:44:40;58.35;;;8.55;;
37431;SDS011;23292;51.300;6.252;2024-01-25T00:47:07;53.40;;;8.15;;
37431;SDS011;23292;51.300;6.252;2024-01-25T00:49:35;46.83;;;8.45;;
37431;SDS011;23292;51.300;6.252;2024-01-25T00:52:02;44.90;;;8.23;;
37431;SDS011;23292;51.300;6.252;2024-01-25T00:54:30;52.20;;;7.75;;
37431;SDS011;23292;51.300;6.252;2024-01-25T00:56:58;42.88;;;7.55;;
37431;SDS011;23292;51.300;6.252;2024-01-25T00:59:25;48.42;;;8.35;;
37431;SDS011;23292;51.300;6.252;2024-01-25T01:01:52;51.55;;;10.13;;
37431;SDS011;23292;51.300;6.252;2024-01-25T01:04:23;43.42;;;8.02;;
37431;SDS011;23292;51.300;6.252;2024-01-25T01:06:50;49.13;;;8.15;;
37431;SDS011;23292;51.300;6.252;2024-01-25T01:09:17;46.80;;;7.72;;
37431;SDS011;23292;51.300;6.252;2024-01-25T01:11:44;70.53;;;9.65;;
37431;SDS011;23292;51.300;6.252;2024-01-25T01:14:12;61.92;;;8.90;;
37431;SDS011;23292;51.300;6.252;2024-01-25T01:16:39;50.72;;;8.35;;
37431;SDS011;23292;51.300;6.252;2024-01-25T01:19:05;47.88;;;8.50;;
37431;SDS011;23292;51.300;6.252;2024-01-25T01:21:33;52.42;;;8.90;;
37431;SDS011;23292;51.300;6.252;2024-01-25T01:24:01;50.78;;;7.93;;
37431;SDS011;23292;51.300;6.252;2024-01-25T01:26:29;37.30;;;7.15;;
37431;SDS011;23292;51.300;6.252;2024-01-25T01:28:56;49.42;;;9.68;;
37431;SDS011;23292;51.300;6.252;2024-01-25T01:31:23;63.90;;;8.50;;
37431;SDS011;23292;51.300;6.252;2024-01-25T01:33:50;54.00;;;9.55;;
37431;SDS011;23292;51.300;6.252;2024-01-25T01:36:18;62.13;;;8.48;;
37431;SDS011;23292;51.300;6.252;2024-01-25T01:38:44;63.38;;;8.77;;
37431;SDS011;23292;51.300;6.252;2024-01-25T01:41:12;57.75;;;9.27;;
37431;SDS011;23292;51.300;6.252;2024-01-25T01:43:39;49.15;;;8.85;;
37431;SDS011;23292;51.300;6.252;2024-01-25T01:48:57;52.03;;;9.10;;
37431;SDS011;23292;51.300;6.252;2024-01-25T01:51:25;75.35;;;9.40;;
37431;SDS011;23292;51.300;6.252;2024-01-25T01:53:53;74.25;;;9.75;;
37431;SDS011;23292;51.300;6.252;2024-01-25T01:56:20;64.35;;;8.70;;
37431;SDS011;23292;51.300;6.252;2024-01-25T01:58:48;59.08;;;10.52;;
37431;SDS011;23292;51.300;6.252;2024-01-25T02:01:15;46.47;;;7.82;;
37431;SDS011;23292;51.300;6.252;2024-01-25T02:03:43;52.83;;;8.88;;
37431;SDS011;23292;51.300;6.252;2024-01-25T02:06:09;46.15;;;8.82;;
37431;SDS011;23292;51.300;6.252;2024-01-25T02:08:36;39.20;;;8.50;;
37431;SDS011;23292;51.300;6.252;2024-01-25T02:11:03;51.50;;;8.45;;
37431;SDS011;23292;51.300;6.252;2024-01-25T02:13:30;55.22;;;9.45;;
37431;SDS011;23292;51.300;6.252;2024-01-25T02:15:57;58.80;;;9.75;;
37431;SDS011;23292;51.300;6.252;2024-01-25T02:18:24;49.28;;;9.77;;
37431;SDS011;23292;51.300;6.252;2024-01-25T02:20:51;70.40;;;9.88;;
37431;SDS011;23292;51.300;6.252;2024-01-25T02:23:18;52.13;;;8.68;;
37431;SDS011;23292;51.300;6.252;2024-01-25T02:25:45;50.75;;;9.20;;
37431;SDS011;23292;51.300;6.252;2024-01-25T02:28:12;47.63;;;7.85;;
37431;SDS011;23292;51.300;6.252;2024-01-25T02:30:39;53.45;;;8.55;;
37431;SDS011;23292;51.300;6.252;2024-01-25T02:33:06;54.03;;;8.15;;
37431;SDS011;23292;51.300;6.252;2024-01-25T02:35:33;63.17;;;9.90;;
37431;SDS011;23292;51.300;6.252;2024-01-25T02:38:00;60.60;;;8.80;;
37431;SDS011;23292;51.300;6.252;2024-01-25T02:40:26;63.97;;;9.73;;
37431;SDS011;23292;51.300;6.252;2024-01-25T02:42:53;53.88;;;8.63;;
37431;SDS011;23292;51.300;6.252;2024-01-25T02:45:20;53.42;;;8.07;;
37431;SDS011;23292;51.300;6.252;2024-01-25T02:47:47;69.53;;;8.88;;
37431;SDS011;23292;51.300;6.252;2024-01-25T02:50:16;52.95;;;8.13;;
37431;SDS011;23292;51.300;6.252;2024-01-25T02:52:43;55.72;;;8.15;;
37431;SDS011;23292;51.300;6.252;2024-01-25T02:55:10;51.67;;;8.45;;
37431;SDS011;23292;51.300;6.252;2024-01-25T02:57:37;57.08;;;8.40;;
37431;SDS011;23292;51.300;6.252;2024-01-25T03:00:04;46.38;;;7.95;;
37431;SDS011;23292;51.300;6.252;2024-01-25T03:02:32;53.83;;;7.97;;
37431;SDS011;23292;51.300;6.252;2024-01-25T03:04:59;53.67;;;8.02;;
37431;SDS011;23292;51.300;6.252;2024-01-25T03:07:26;51.08;;;8.93;;
37431;SDS011;23292;51.300;6.252;2024-01-25T03:09:53;49.90;;;9.57;;
37431;SDS011;23292;51.300;6.252;2024-01-25T03:12:19;53.10;;;8.25;;
37431;SDS011;23292;51.300;6.252;2024-01-25T03:14:47;68.07;;;9.38;;
37431;SDS011;23292;51.300;6.252;2024-01-25T03:17:14;47.33;;;7.82;;
37431;SDS011;23292;51.300;6.252;2024-01-25T03:19:41;51.70;;;8.27;;
37431;SDS011;23292;51.300;6.252;2024-01-25T03:22:08;52.47;;;8.20;;
37431;SDS011;23292;51.300;6.252;2024-01-25T03:24:37;56.10;;;9.20;;
37431;SDS011;23292;51.300;6.252;2024-01-25T03:27:05;58.30;;;7.82;;
37431;SDS011;23292;51.300;6.252;2024-01-25T03:29:32;55.10;;;9.38;;
37431;SDS011;23292;51.300;6.252;2024-01-25T03:31:59;55.78;;;9.55;;
37431;SDS011;23292;51.300;6.252;2024-01-25T03:34:25;66.35;;;12.02;;
37431;SDS011;23292;51.300;6.252;2024-01-25T03:36:52;74.45;;;10.02;;
37431;SDS011;23292;51.300;6.252;2024-01-25T03:39:20;66.63;;;9.18;;
37431;SDS011;23292;51.300;6.252;2024-01-25T03:41:47;65.80;;;8.88;;
37431;SDS011;23292;51.300;6.252;2024-01-25T03:44:14;57.75;;;8.85;;
37431;SDS011;23292;51.300;6.252;2024-01-25T03:46:40;62.28;;;10.10;;
37431;SDS011;23292;51.300;6.252;2024-01-25T03:49:07;60.92;;;10.07;;
37431;SDS011;23292;51.300;6.252;2024-01-25T03:51:34;58.70;;;10.45;;
37431;SDS011;23292;51.300;6.252;2024-01-25T03:54:01;50.15;;;9.35;;
37431;SDS011;23292;51.300;6.252;2024-01-25T03:56:28;54.95;;;8.85;;
37431;SDS011;23292;51.300;6.252;2024-01-25T03:58:55;55.88;;;8.77;;
37431;SDS011;23292;51.300;6.252;2024-01-25T04:01:22;54.35;;;9.52;;
37431;SDS011;23292;51.300;6.252;2024-01-25T04:03:49;55.63;;;7.47;;
37431;SDS011;23292;51.300;6.252;2024-01-25T04:06:17;66.13;;;12.98;;
37431;SDS011;23292;51.300;6.252;2024-01-25T04:08:44;59.45;;;8.68;;
37431;SDS011;23292;51.300;6.252;2024-01-25T04:11:10;54.97;;;9.70;;
37431;SDS011;23292;51.300;6.252;2024-01-25T04:13:40;72.13;;;9.60;;
37431;SDS011;23292;51.300;6.252;2024-01-25T04:16:07;47.08;;;7.93;;
37431;SDS011;23292;51.300;6.252;2024-01-25T04:18:33;56.85;;;10.00;;
37431;SDS011;23292;51.300;6.252;2024-01-25T04:21:01;54.50;;;10.95;;
37431;SDS011;23292;51.300;6.252;2024-01-25T04:23:27;62.13;;;8.68;;
37431;SDS011;23292;51.300;6.252;2024-01-25T04:25:54;59.83;;;9.02;;
37431;SDS011;23292;51.300;6.252;2024-01-25T04:28:22;56.20;;;10.15;;
37431;SDS011;23292;51.300;6.252;2024-01-25T04:30:49;53.08;;;8.32;;
37431;SDS011;23292;51.300;6.252;2024-01-25T04:33:17;57.58;;;8.88;;
37431;SDS011;23292;51.300;6.252;2024-01-25T04:35:44;63.25;;;10.10;;
37431;SDS011;23292;51.300;6.252;2024-01-25T04:38:12;55.97;;;8.40;;
37431;SDS011;23292;51.300;6.252;2024-01-25T04:40:39;58.58;;;10.82;;
37431;SDS011;23292;51.300;6.252;2024-01-25T04:43:06;59.22;;;10.63;;
37431;SDS011;23292;51.300;6.252;2024-01-25T04:45:32;56.70;;;9.52;;
37431;SDS011;23292;51.300;6.252;2024-01-25T04:47:59;49.50;;;9.02;;
37431;SDS011;23292;51.300;6.252;2024-01-25T04:50:26;55.55;;;8.60;;
37431;SDS011;23292;51.300;6.252;2024-01-25T04:52:53;56.60;;;8.63;;
37431;SDS011;23292;51.300;6.252;2024-01-25T04:55:20;76.30;;;10.40;;
37431;SDS011;23292;51.300;6.252;2024-01-25T04:57:47;44.35;;;8.55;;
37431;SDS011;23292;51.300;6.252;2024-01-25T05:00:17;48.75;;;8.23;;
37431;SDS011;23292;51.300;6.252;2024-01-25T05:02:44;56.78;;;9.10;;
37431;SDS011;23292;51.300;6.252;2024-01-25T05:05:11;73.15;;;9.27;;
37431;SDS011;23292;51.300;6.252;2024-01-25T05:07:38;54.72;;;7.63;;
37431;SDS011;23292;51.300;6.252;2024-01-25T05:10:05;53.42;;;8.15;;
37431;SDS011;23292;51.300;6.252;2024-01-25T05:12:33;53.10;;;8.00;;
37431;SDS011;23292;51.300;6.252;2024-01-25T05:15:00;43.40;;;8.27;;
37431;SDS011;23292;51.300;6.252;2024-01-25T05:17:27;46.25;;;7.38;;
37431;SDS011;23292;51.300;6.252;2024-01-25T05:19:53;48.10;;;8.27;;
37431;SDS011;23292;51.300;6.252;2024-01-25T05:22:20;47.33;;;7.72;;
37431;SDS011;23292;51.300;6.252;2024-01-25T05:24:48;63.60;;;10.07;;
37431;SDS011;23292;51.300;6.252;2024-01-25T05:27:15;43.00;;;7.85;;
37431;SDS011;23292;51.300;6.252;2024-01-25T05:29:42;49.13;;;7.35;;
37431;SDS011;23292;51.300;6.252;2024-01-25T05:32:09;48.15;;;9.07;;
37431;SDS011;23292;51.300;6.252;2024-01-25T05:34:35;43.50;;;7.95;;
37431;SDS011;23292;51.300;6.252;2024-01-25T05:37:02;46.63;;;8.93;;
37431;SDS011;23292;51.300;6.252;2024-01-25T05:39:29;39.33;;;7.55;;
37431;SDS011;23292;51.300;6.252;2024-01-25T05:41:57;48.38;;;7.38;;
37431;SDS011;23292;51.300;6.252;2024-01-25T05:44:24;65.55;;;9.55;;
37431;SDS011;23292;51.300;6.252;2024-01-25T05:46:50;66.50;;;10.13;;
37431;SDS011;23292;51.300;6.252;2024-01-25T05:49:17;56.78;;;8.93;;
37431;SDS011;23292;51.300;6.252;2024-01-25T05:51:44;63.13;;;9.18;;
37431;SDS011;23292;51.300;6.252;2024-01-25T05:54:11;74.35;;;10.90;;
37431;SDS011;23292;51.300;6.252;2024-01-25T05:56:38;66.25;;;8.48;;
37431;SDS011;23292;51.300;6.252;2024-01-25T05:59:05;67.70;;;8.68;;
37431;SDS011;23292;51.300;6.252;2024-01-25T06:01:32;66.00;;;9.93;;
37431;SDS011;23292;51.300;6.252;2024-01-25T06:03:59;59.40;;;8.35;;
37431;SDS011;23292;51.300;6.252;2024-01-25T06:06:26;56.50;;;9.75;;
37431;SDS011;23292;51.300;6.252;2024-01-25T06:08:54;54.45;;;9.52;;
37431;SDS011;23292;51.300;6.252;2024-01-25T06:11:36;45.30;;;7.72;;
37431;SDS011;23292;51.300;6.252;2024-01-25T06:14:05;51.53;;;8.18;;
37431;SDS011;23292;51.300;6.252;2024-01-25T06:16:32;60.15;;;9.48;;
37431;SDS011;23292;51.300;6.252;2024-01-25T06:18:59;46.30;;;7.75;;
37431;SDS011;23292;51.300;6.252;2024-01-25T06:21:27;55.47;;;9.80;;
37431;SDS011;23292;51.300;6.252;2024-01-25T06:23:54;50.33;;;8.23;;
37431;SDS011;23292;51.300;6.252;2024-01-25T06:26:21;64.03;;;9.75;;
37431;SDS011;23292;51.300;6.252;2024-01-25T06:28:48;61.33;;;9.63;;
37431;SDS011;23292;51.300;6.252;2024-01-25T06:31:14;61.03;;;9.40;;
37431;SDS011;23292;51.300;6.252;2024-01-25T06:33:42;61.53;;;9.13;;
37431;SDS011;23292;51.300;6.252;2024-01-25T06:36:13;75.88;;;10.85;;
37431;SDS011;23292;51.300;6.252;2024-01-25T06:38:43;53.10;;;9.82;;
37431;SDS011;23292;51.300;6.252;2024-01-25T06:41:10;71.03;;;10.68;;
37431;SDS011;23292;51.300;6.252;2024-01-25T06:43:37;68.97;;;9.40;;
37431;SDS011;23292;51.300;6.252;2024-01-25T06:46:06;62.38;;;9.27;;
37431;SDS011;23292;51.300;6.252;2024-01-25T06:48:33;62.17;;;9.00;;
37431;SDS011;23292;51.300;6.252;2024-01-25T06:51:01;50.22;;;8.82;;
37431;SDS011;23292;51.300;6.252;2024-01-25T06:53:28;54.42;;;9.18;;
37431;SDS011;23292;51.300;6.252;2024-01-25T06:55:56;68.90;;;9.57;;
37431;SDS011;23292;51.300;6.252;2024-01-25T06:58:22;59.13;;;10.48;;
37431;SDS011;23292;51.300;6.252;2024-01-25T07:00:50;65.05;;;10.25;;
37431;SDS011;23292;51.300;6.252;2024-01-25T07:03:19;65.95;;;10.73;;
37431;SDS011;23292;51.300;6.252;2024-01-25T07:05:46;54.97;;;10.30;;
37431;SDS011;23292;51.300;6.252;2024-01-25T07:08:14;64.00;;;10.00;;
37431;SDS011;23292;51.300;6.252;2024-01-25T07:10:42;53.67;;;9.60;;
37431;SDS011;23292;51.300;6.252;2024-01-25T07:13:10;47.33;;;9.07;;
37431;SDS011;23292;51.300;6.252;2024-01-25T07:15:37;56.97;;;9.40;;
37431;SDS011;23292;51.300;6.252;2024-01-25T07:18:04;50.30;;;8.80;;
37431;SDS011;23292;51.300;6.252;2024-01-25T07:20:31;63.45;;;11.90;;
37431;SDS011;23292;51.300;6.252;2024-01-25T07:22:58;65.60;;;11.43;;
37431;SDS011;23292;51.300;6.252;2024-01-25T07:25:25;59.22;;;11.07;;
37431;SDS011;23292;51.300;6.252;2024-01-25T07:27:52;66.22;;;11.50;;
37431;SDS011;23292;51.300;6.252;2024-01-25T07:30:20;65.88;;;11.07;;
37431;SDS011;23292;51.300;6.252;2024-01-25T07:32:48;67.85;;;12.60;;
37431;SDS011;23292;51.300;6.252;2024-01-25T07:35:17;61.55;;;11.63;;
37431;SDS011;23292;51.300;6.252;2024-01-25T07:37:44;73.28;;;13.02;;
37431;SDS011;23292;51.300;6.252;2024-01-25T07:40:11;67.72;;;12.18;;
37431;SDS011;23292;51.300;6.252;2024-01-25T07:42:38;60.28;;;12.10;;
37431;SDS011;23292;51.300;6.252;2024-01-25T07:45:06;65.15;;;14.15;;
37431;SDS011;23292;51.300;6.252;2024-01-25T07:47:33;87.13;;;14.02;;
37431;SDS011;23292;51.300;6.252;2024-01-25T07:50:01;62.25;;;12.13;;
37431;SDS011;23292;51.300;6.252;2024-01-25T07:52:28;69.03;;;12.68;;
37431;SDS011;23292;51.300;6.252;2024-01-25T07:54:55;96.00;;;14.45;;
37431;SDS011;23292;51.300;6.252;2024-01-25T07:57:22;75.05;;;12.88;;
37431;SDS011;23292;51.300;6.252;2024-01-25T07:59:49;93.85;;;15.65;;
37431;SDS011;23292;51.300;6.252;2024-01-25T08:02:16;89.43;;;15.85;;
37431;SDS011;23292;51.300;6.252;2024-01-25T08:04:47;97.03;;;15.27;;
37431;SDS011;23292;51.300;6.252;2024-01-25T08:07:14;91.60;;;15.25;;
37431;SDS011;23292;51.300;6.252;2024-01-25T08:09:41;71.60;;;14.15;;
37431;SDS011;23292;51.300;6.252;2024-01-25T08:12:09;86.75;;;15.38;;
37431;SDS011;23292;51.300;6.252;2024-01-25T08:14:38;74.68;;;15.80;;
37431;SDS011;23292;51.300;6.252;2024-01-25T08:17:04;91.35;;;16.15;;
37431;SDS011;23292;51.300;6.252;2024-01-25T08:19:32;77.53;;;15.27;;
37431;SDS011;23292;51.300;6.252;2024-01-25T08:22:00;117.68;;;24.15;;
37431;SDS011;23292;51.300;6.252;2024-01-25T08:24:28;85.68;;;16.15;;
37431;SDS011;23292;51.300;6.252;2024-01-25T08:26:55;87.68;;;18.15;;
37431;SDS011;23292;51.300;6.252;2024-01-25T08:29:22;78.75;;;16.48;;
37431;SDS011;23292;51.300;6.252;2024-01-25T08:31:48;83.82;;;17.30;;
37431;SDS011;23292;51.300;6.252;2024-01-25T08:34:16;82.45;;;20.52;;
37431;SDS011;23292;51.300;6.252;2024-01-25T08:36:43;107.80;;;22.23;;
37431;SDS011;23292;51.300;6.252;2024-01-25T08:39:10;94.28;;;21.63;;
37431;SDS011;23292;51.300;6.252;2024-01-25T08:41:37;103.00;;;22.33;;
37431;SDS011;23292;51.300;6.252;2024-01-25T08:44:07;109.68;;;25.25;;
37431;SDS011;23292;51.300;6.252;2024-01-25T08:46:34;109.50;;;24.80;;
37431;SDS011;23292;51.300;6.252;2024-01-25T08:49:01;116.45;;;24.15;;
37431;SDS011;23292;51.300;6.252;2024-01-25T08:51:33;103.82;;;24.90;;
37431;SDS011;23292;51.300;6.252;2024-01-25T08:54:00;122.57;;;23.58;;
37431;SDS011;23292;51.300;6.252;2024-01-25T08:56:29;115.38;;;25.17;;
37431;SDS011;23292;51.300;6.252;2024-01-25T08:58:57;113.43;;;30.05;;
37431;SDS011;23292;51.300;6.252;2024-01-25T09:01:24;138.90;;;29.42;;
37431;SDS011;23292;51.300;6.252;2024-01-25T09:03:51;143.40;;;31.02;;
37431;SDS011;23292;51.300;6.252;2024-01-25T09:06:18;126.63;;;29.50;;
37431;SDS011;23292;51.300;6.252;2024-01-25T09:08:45;149.43;;;31.95;;
37431;SDS011;23292;51.300;6.252;2024-01-25T09:11:13;131.23;;;28.90;;
37431;SDS011;23292;51.300;6.252;2024-01-25T09:13:40;153.48;;;30.83;;
37431;SDS011;23292;51.300;6.252;2024-01-25T09:16:13;143.75;;;30.70;;
37431;SDS011;23292;51.300;6.252;2024-01-25T09:18:42;136.15;;;32.08;;
37431;SDS011;23292;51.300;6.252;2024-01-25T09:21:10;130.30;;;30.75;;
37431;SDS011;23292;51.300;6.252;2024-01-25T09:23:38;129.30;;;32.25;;
37431;SDS011;23292;51.300;6.252;2024-01-25T09:26:06;153.15;;;31.55;;
37431;SDS011;23292;51.300;6.252;2024-01-25T09:28:33;117.15;;;31.80;;
37431;SDS011;23292;51.300;6.252;2024-01-25T09:31:00;128.25;;;31.17;;
37431;SDS011;23292;51.300;6.252;2024-01-25T09:33:27;107.07;;;28.73;;
37431;SDS011;23292;51.300;6.252;2024-01-25T09:35:56;123.78;;;29.38;;
37431;SDS011;23292;51.300;6.252;2024-01-25T09:38:23;122.35;;;29.02;;
37431;SDS011;23292;51.300;6.252;2024-01-25T09:40:50;106.10;;;26.75;;
37431;SDS011;23292;51.300;6.252;2024-01-25T09:43:18;115.28;;;28.20;;
37431;SDS011;23292;51.300;6.252;2024-01-25T09:45:47;114.93;;;26.98;;
37431;SDS011;23292;51.300;6.252;2024-01-25T09:48:19;85.18;;;23.63;;
37431;SDS011;23292;51.300;6.252;2024-01-25T09:50:47;111.70;;;25.98;;
37431;SDS011;23292;51.300;6.252;2024-01-25T09:53:17;94.38;;;26.52;;
37431;SDS011;23292;51.300;6.252;2024-01-25T09:55:58;101.43;;;27.83;;
37431;SDS011;23292;51.300;6.252;2024-01-25T09:58:35;104.30;;;25.35;;
37431;SDS011;23292;51.300;6.252;2024-01-25T10:01:07;100.97;;;24.77;;
37431;SDS011;23292;51.300;6.252;2024-01-25T10:03:36;86.63;;;26.10;;
37431;SDS011;23292;51.300;6.252;2024-01-25T10:06:03;94.30;;;25.42;;
37431;SDS011;23292;51.300;6.252;2024-01-25T10:08:33;101.25;;;27.42;;
37431;SDS011;23292;51.300;6.252;2024-01-25T10:10:59;102.57;;;27.83;;
37431;SDS011;23292;51.300;6.252;2024-01-25T10:13:26;104.10;;;28.00;;
37431;SDS011;23292;51.300;6.252;2024-01-25T10:15:54;97.90;;;27.20;;
37431;SDS011;23292;51.300;6.252;2024-01-25T10:18:22;93.10;;;28.33;;
37431;SDS011;23292;51.300;6.252;2024-01-25T10:20:55;110.78;;;29.90;;
37431;SDS011;23292;51.300;6.252;2024-01-25T10:23:23;98.40;;;26.60;;
37431;SDS011;23292;51.300;6.252;2024-01-25T10:25:52;92.50;;;27.63;;
37431;SDS011;23292;51.300;6.252;2024-01-25T10:28:19;86.93;;;25.48;;
37431;SDS011;23292;51.300;6.252;2024-01-25T10:30:46;92.85;;;26.42;;
37431;SDS011;23292;51.300;6.252;2024-01-25T10:33:14;84.03;;;27.60;;
37431;SDS011;23292;51.300;6.252;2024-01-25T10:35:43;76.65;;;25.50;;
37431;SDS011;23292;51.300;6.252;2024-01-25T10:38:20;88.53;;;27.00;;
37431;SDS011;23292;51.300;6.252;2024-01-25T10:40:48;78.00;;;24.83;;
37431;SDS011;23292;51.300;6.252;2024-01-25T10:43:17;94.13;;;26.83;;
37431;SDS011;23292;51.300;6.252;2024-01-25T10:45:44;83.93;;;24.42;;
37431;SDS011;23292;51.300;6.252;2024-01-25T10:48:11;75.30;;;23.67;;
37431;SDS011;23292;51.300;6.252;2024-01-25T10:50:38;71.53;;;24.35;;
37431;SDS011;23292;51.300;6.252;2024-01-25T10:53:06;71.88;;;25.80;;
37431;SDS011;23292;51.300;6.252;2024-01-25T10:55:34;86.85;;;30.30;;
37431;SDS011;23292;51.300;6.252;2024-01-25T10:58:02;96.55;;;32.53;;
37431;SDS011;23292;51.300;6.252;2024-01-25T11:00:30;97.28;;;31.88;;
37431;SDS011;23292;51.300;6.252;2024-01-25T11:02:58;96.13;;;31.38;;
37431;SDS011;23292;51.300;6.252;2024-01-25T11:05:26;97.55;;;29.65;;
37431;SDS011;23292;51.300;6.252;2024-01-25T11:07:54;83.07;;;27.70;;
37431;SDS011;23292;51.300;6.252;2024-01-25T11:10:24;72.68;;;23.70;;
37431;SDS011;23292;51.300;6.252;2024-01-25T11:15:30;76.97;;;24.33;;
37431;SDS011;23292;51.300;6.252;2024-01-25T11:18:00;65.57;;;21.88;;
37431;SDS011;23292;51.300;6.252;2024-01-25T11:20:29;79.18;;;21.95;;
37431;SDS011;23292;51.300;6.252;2024-01-25T11:23:06;72.43;;;21.52;;
37431;SDS011;23292;51.300;6.252;2024-01-25T11:25:37;70.70;;;18.98;;
37431;SDS011;23292;51.300;6.252;2024-01-25T11:28:04;59.00;;;17.92;;
37431;SDS011;23292;51.300;6.252;2024-01-25T11:30:32;72.43;;;19.73;;
37431;SDS011;23292;51.300;6.252;2024-01-25T11:33:00;60.67;;;16.75;;
37431;SDS011;23292;51.300;6.252;2024-01-25T11:35:30;59.72;;;16.58;;
37431;SDS011;23292;51.300;6.252;2024-01-25T11:37:58;53.78;;;16.02;;
37431;SDS011;23292;51.300;6.252;2024-01-25T11:40:26;59.10;;;16.15;;
37431;SDS011;23292;51.300;6.252;2024-01-25T11:43:04;72.72;;;18.58;;
37431;SDS011;23292;51.300;6.252;2024-01-25T11:45:37;63.65;;;17.85;;
37431;SDS011;23292;51.300;6.252;2024-01-25T11:48:09;61.85;;;20.00;;
37431;SDS011;23292;51.300;6.252;2024-01-25T11:50:37;71.18;;;18.95;;
37431;SDS011;23292;51.300;6.252;2024-01-25T11:53:04;66.57;;;20.13;;
37431;SDS011;23292;51.300;6.252;2024-01-25T11:55:32;60.08;;;19.42;;
37431;SDS011;23292;51.300;6.252;2024-01-25T11:57:59;58.65;;;19.15;;
37431;SDS011;23292;51.300;6.252;2024-01-25T12:00:26;67.85;;;18.52;;
37431;SDS011;23292;51.300;6.252;2024-01-25T12:02:53;68.25;;;21.10;;
37431;SDS011;23292;51.300;6.252;2024-01-25T12:05:20;60.90;;;19.08;;
37431;SDS011;23292;51.300;6.252;2024-01-25T12:07:48;78.35;;;23.73;;
37431;SDS011;23292;51.300;6.252;2024-01-25T12:10:15;74.65;;;23.55;;
37431;SDS011;23292;51.300;6.252;2024-01-25T12:12:44;61.13;;;19.90;;
37431;SDS011;23292;51.300;6.252;2024-01-25T12:15:11;76.97;;;22.45;;
37431;SDS011;23292;51.300;6.252;2024-01-25T12:17:39;69.55;;;21.70;;
37431;SDS011;23292;51.300;6.252;2024-01-25T12:20:07;68.18;;;21.35;;
37431;SDS011;23292;51.300;6.252;2024-01-25T12:22:38;59.13;;;19.77;;
37431;SDS011;23292;51.300;6.252;2024-01-25T12:25:06;65.65;;;20.08;;
37431;SDS011;23292;51.300;6.252;2024-01-25T12:27:36;69.82;;;20.35;;
37431;SDS011;23292;51.300;6.252;2024-01-25T12:30:06;62.95;;;19.67;;
37431;SDS011;23292;51.300;6.252;2024-01-25T12:32:34;56.60;;;18.38;;
37431;SDS011;23292;51.300;6.252;2024-01-25T12:35:01;75.30;;;20.88;;
37431;SDS011;23292;51.300;6.252;2024-01-25T12:37:30;72.05;;;21.25;;
37431;SDS011;23292;51.300;6.252;2024-01-25T12:39:58;62.05;;;20.02;;
37431;SDS011;23292;51.300;6.252;2024-01-25T12:42:25;64.38;;;18.38;;
37431;SDS011;23292;51.300;6.252;2024-01-25T12:44:53;56.00;;;18.83;;
37431;SDS011;23292;51.300;6.252;2024-01-25T12:47:23;69.90;;;19.30;;
37431;SDS011;23292;51.300;6.252;2024-01-25T12:49:50;65.53;;;19.63;;
37431;SDS011;23292;51.300;6.252;2024-01-25T12:52:17;61.75;;;19.02;;
37431;SDS011;23292;51.300;6.252;2024-01-25T12:54:44;76.43;;;20.88;;
37431;SDS011;23292;51.300;6.252;2024-01-25T12:57:11;64.80;;;20.83;;
37431;SDS011;23292;51.300;6.252;2024-01-25T12:59:38;63.70;;;18.38;;
37431;SDS011;23292;51.300;6.252;2024-01-25T13:02:06;81.07;;;19.65;;
37431;SDS011;23292;51.300;6.252;2024-01-25T13:04:34;56.50;;;19.40;;
37431;SDS011;23292;51.300;6.252;2024-01-25T13:07:01;63.92;;;19.00;;
37431;SDS011;23292;51.300;6.252;2024-01-25T13:09:28;53.90;;;18.65;;
37431;SDS011;23292;51.300;6.252;2024-01-25T13:12:00;69.57;;;19.88;;
37431;SDS011;23292;51.300;6.252;2024-01-25T13:14:27;67.13;;;19.27;;
37431;SDS011;23292;51.300;6.252;2024-01-25T13:16:54;64.05;;;18.85;;
37431;SDS011;23292;51.300;6.252;2024-01-25T13:19:20;58.03;;;17.73;;
37431;SDS011;23292;51.300;6.252;2024-01-25T13:21:49;50.45;;;16.50;;
37431;SDS011;23292;51.300;6.252;2024-01-25T13:24:18;68.88;;;19.08;;
37431;SDS011;23292;51.300;6.252;2024-01-25T13:26:45;63.22;;;17.65;;
37431;SDS011;23292;51.300;6.252;2024-01-25T13:29:12;53.70;;;15.38;;
37431;SDS011;23292;51.300;6.252;2024-01-25T13:31:40;65.88;;;17.45;;
37431;SDS011;23292;51.300;6.252;2024-01-25T13:34:07;54.72;;;16.75;;
37431;SDS011;23292;51.300;6.252;2024-01-25T13:36:34;55.58;;;16.70;;
37431;SDS011;23292;51.300;6.252;2024-01-25T13:39:01;61.30;;;15.00;;
37431;SDS011;23292;51.300;6.252;2024-01-25T13:41:27;51.38;;;15.02;;
37431;SDS011;23292;51.300;6.252;2024-01-25T13:43:55;51.75;;;14.90;;
37431;SDS011;23292;51.300;6.252;2024-01-25T13:46:22;48.25;;;14.55;;
37431;SDS011;23292;51.300;6.252;2024-01-25T13:48:51;46.03;;;15.50;;
37431;SDS011;23292;51.300;6.252;2024-01-25T13:51:19;48.70;;;14.43;;
37431;SDS011;23292;51.300;6.252;2024-01-25T13:53:46;40.05;;;12.70;;
37431;SDS011;23292;51.300;6.252;2024-01-25T13:56:15;44.30;;;13.13;;
37431;SDS011;23292;51.300;6.252;2024-01-25T13:58:42;51.35;;;14.25;;
37431;SDS011;23292;51.300;6.252;2024-01-25T14:01:09;52.45;;;13.93;;
37431;SDS011;23292;51.300;6.252;2024-01-25T14:03:36;57.85;;;13.52;;
37431;SDS011;23292;51.300;6.252;2024-01-25T14:06:03;45.97;;;12.88;;
37431;SDS011;23292;51.300;6.252;2024-01-25T14:08:31;37.25;;;12.00;;
37431;SDS011;23292;51.300;6.252;2024-01-25T14:10:58;45.22;;;13.05;;
37431;SDS011;23292;51.300;6.252;2024-01-25T14:13:25;42.60;;;12.50;;
37431;SDS011;23292;51.300;6.252;2024-01-25T14:15:53;51.38;;;13.70;;
37431;SDS011;23292;51.300;6.252;2024-01-25T14:18:21;65.97;;;12.85;;
37431;SDS011;23292;51.300;6.252;2024-01-25T14:20:48;38.20;;;10.98;;
37431;SDS011;23292;51.300;6.252;2024-01-25T14:23:15;47.42;;;11.52;;
37431;SDS011;23292;51.300;6.252;2024-01-25T14:25:42;42.40;;;11.68;;
37431;SDS011;23292;51.300;6.252;2024-01-25T14:28:09;55.90;;;12.60;;
37431;SDS011;23292;51.300;6.252;2024-01-25T14:30:36;38.65;;;11.98;;
37431;SDS011;23292;51.300;6.252;2024-01-25T14:33:03;51.28;;;12.75;;